Terminal Aerodrome Forecast
Issued by NWS Pueblo, CO

Home | Current Version | Previous Version | Text Only | Print | Product List | Glossary On
Versions: 1 2 3 4 5 6 7 8 9 10 11 12 13 14 15 16 17 18 19 20 21 22 23 24 25 26 27 28 29 30 31 32 33 34 35 36 37 38
217
FTUS45 KPUB 241132
TAFALS
TAF
KALS 241132Z 2412/2512 33018G28KT P6SM VCSH SCT020 OVC040
      TEMPO 2412/2414 3SM -SHSN BR OVC020
     FM241600 33015G25KT P6SM SCT040 BKN080
     FM242000 33012KT P6SM SCT060 SCT200
     FM250000 VRB06KT P6SM FEW200=

USA.gov is the U.S. government's official web portal to all federal, state and local government web resources and services.